Time;durP1;ratioP1;P1;durP2;ratioP2;P2;SDS_P1;SDS_P2;PMS_P1;PMS_P2;Temp;Humidity;BMP_temperature;BMP_pressure;BME280_temperature;BME280_humidity;BME280_pressure;Samples;Min_cycle;Max_cycle;Signal;HPM_P1;HPM_P2
2022/08/15 00:02:52;;;;;;;9.45;8.05;;;;;;;28.76;41.29;100019.29;2345041;74;50366;-73
2022/08/15 00:06:00;;;;;;;12.20;8.88;;;;;;;28.78;41.23;100015.77;2256741;77;51488;-73
2022/08/15 00:09:05;;;;;;;10.13;8.60;;;;;;;28.76;41.21;100015.20;2233288;77;50982;-72
2022/08/15 00:12:07;;;;;;;;;;;;;;;28.78;41.18;100013.59;2260172;77;50207;-72
2022/08/15 00:15:11;;;;;;;9.75;8.50;;;;;;;28.79;41.21;100016.58;2267209;78;51538;-73
2022/08/15 00:18:13;;;;;;;9.98;8.63;;;;;;;28.77;41.25;100010.58;2290891;76;49472;-73
2022/08/15 00:21:17;;;;;;;10.55;8.10;;;;;;;28.75;41.17;100008.14;2302637;76;51445;-73
2022/08/15 00:24:21;;;;;;;10.08;8.68;;;;;;;28.75;41.22;100004.05;2334350;74;51665;-72
2022/08/15 00:27:26;;;;;;;9.13;8.20;;;;;;;28.75;41.16;100010.86;2232458;77;50010;-72
2022/08/15 00:30:28;;;;;;;11.85;9.05;;;;;;;28.76;41.22;100014.39;2313757;76;50357;-72
2022/08/15 00:33:30;;;;;;;10.68;7.97;;;;;;;28.74;41.24;100013.28;2272992;77;50076;-72
2022/08/15 00:36:33;;;;;;;10.90;8.45;;;;;;;28.73;41.35;100013.02;2272879;77;50687;-72
2022/08/15 00:39:35;;;;;;;12.50;8.38;;;;;;;28.75;41.42;100014.95;2274922;77;51399;-73
2022/08/15 00:42:37;;;;;;;10.43;8.65;;;;;;;28.76;41.39;100008.95;2282851;77;51839;-73
2022/08/15 00:45:39;;;;;;;9.05;8.00;;;;;;;28.75;41.38;100008.14;2341399;74;51438;-73
2022/08/15 00:48:41;;;;;;;9.35;8.43;;;;;;;28.74;41.42;100009.20;2350767;74;50564;-73
2022/08/15 00:51:47;;;;;;;9.15;8.25;;;;;;;28.76;41.40;100010.31;2311370;76;51518;-74
2022/08/15 00:54:55;;;;;;;13.32;8.70;;;;;;;28.75;41.48;100009.50;2341824;76;51515;-72
2022/08/15 00:57:57;;;;;;;9.23;8.30;;;;;;;28.74;41.55;100009.20;2341554;76;51513;-71
2022/08/15 01:00:59;;;;;;;12.13;8.35;;;;;;;28.75;41.52;100008.14;2341821;76;50319;-72
2022/08/15 01:04:02;;;;;;;10.15;9.18;;;;;;;28.74;41.45;100003.76;2341762;76;51506;-71
2022/08/15 01:07:04;;;;;;;9.93;8.25;;;;;;;28.73;41.55;99996.69;2322940;76;49548;-71
2022/08/15 01:10:07;;;;;;;9.30;8.35;;;;;;;28.74;41.60;100001.03;2297476;77;50720;-71
2022/08/15 01:13:09;;;;;;;11.15;8.80;;;;;;;28.73;41.48;99998.59;2266747;77;51474;-71
2022/08/15 01:16:11;;;;;;;14.07;8.83;;;;;;;28.73;41.55;99991.24;2266189;77;50364;-71
2022/08/15 01:19:33;;;;;;;11.38;9.10;;;;;;;28.73;41.63;99992.60;2302723;76;50285;-71
2022/08/15 01:22:54;;;;;;;13.53;8.60;;;;;;;28.73;41.63;99999.41;2311526;76;51980;-72
2022/08/15 01:25:59;;;;;;;10.65;8.60;;;;;;;28.75;41.64;99985.55;2341209;76;50706;-72
2022/08/15 01:29:01;;;;;;;10.95;8.23;;;;;;;28.72;41.67;99995.06;2322059;76;51522;-72
2022/08/15 01:32:04;;;;;;;10.63;8.83;;;;;;;28.72;41.64;99987.41;2391617;74;49980;-72
2022/08/15 01:35:07;;;;;;;10.18;9.05;;;;;;;28.70;41.77;99984.16;2363115;74;51528;-72
2022/08/15 01:38:22;;;;;;;12.88;9.25;;;;;;;28.70;41.77;99983.61;2335064;75;51577;-72
2022/08/15 01:41:33;;;;;;;10.43;8.67;;;;;;;28.71;41.74;99987.96;2286992;77;51548;-72
2022/08/15 01:44:45;;;;;;;10.65;8.88;;;;;;;28.70;41.77;99980.89;2285731;77;51469;-72
2022/08/15 01:48:12;;;;;;;12.65;8.98;;;;;;;28.70;41.90;99987.70;2283034;77;50779;-71
2022/08/15 01:51:15;;;;;;;9.08;8.10;;;;;;;28.69;41.82;99983.32;2353363;74;51414;-71
2022/08/15 01:54:17;;;;;;;9.93;8.85;;;;;;;28.70;41.67;99984.16;2353326;75;51551;-69
2022/08/15 01:57:19;;;;;;;10.43;8.43;;;;;;;28.69;41.89;99983.32;2335447;75;52312;-72
2022/08/15 02:00:21;;;;;;;12.70;9.38;;;;;;;28.69;41.95;99987.41;2353190;75;51438;-71
2022/08/15 02:03:33;;;;;;;10.70;8.58;;;;;;;28.69;41.91;99992.03;2360833;74;51339;-71
2022/08/15 02:06:29;;;;;;;9.28;8.08;;;;;;;28.69;42.02;99993.39;2306734;77;22506;-71
2022/08/15 02:09:31;;;;;;;14.47;9.73;;;;;;;28.69;42.03;99988.77;2308767;77;49957;-72
2022/08/15 02:12:35;;;;;;;9.63;8.60;;;;;;;28.68;41.98;99986.33;2252151;75;52430;-72
2022/08/15 02:15:38;;;;;;;12.20;9.03;;;;;;;28.66;41.93;99983.86;2286023;75;51550;-71
2022/08/15 02:18:40;;;;;;;13.83;9.10;;;;;;;28.66;42.03;99986.58;2359526;74;50221;-71
2022/08/15 02:21:45;;;;;;;10.05;8.95;;;;;;;28.66;42.15;99980.59;2252259;77;49479;-72
2022/08/15 02:24:47;;;;;;;10.65;9.30;;;;;;;28.65;42.14;99978.96;2308792;76;50727;-72
2022/08/15 02:27:49;;;;;;;11.12;9.13;;;;;;;28.68;42.24;99971.36;2343328;75;51529;-72
2022/08/15 02:30:53;;;;;;;10.85;9.13;;;;;;;28.68;42.30;99970.80;2390571;74;51594;-71
2022/08/15 02:33:58;;;;;;;10.68;9.00;;;;;;;28.68;42.12;99965.91;2308620;77;50132;-72
2022/08/15 02:37:01;;;;;;;12.35;8.60;;;;;;;28.66;42.18;99969.70;2277248;77;52180;-72
2022/08/15 02:40:04;;;;;;;11.22;8.93;;;;;;;28.65;42.26;99961.81;2307278;76;50238;-71
2022/08/15 02:43:09;;;;;;;10.18;9.18;;;;;;;28.64;42.23;99962.88;2294159;77;50402;-72
2022/08/15 02:46:11;;;;;;;;;;;;;;;28.63;42.27;99962.63;2310494;76;51236;-71
2022/08/15 02:49:13;;;;;;;10.23;8.78;;;;;;;28.64;42.08;99971.05;2293878;76;51362;-72
2022/08/15 02:52:15;;;;;;;11.70;9.45;;;;;;;28.64;41.91;99969.69;2294175;77;51465;-71
2022/08/15 02:55:19;;;;;;;12.45;9.25;;;;;;;28.63;42.21;99975.69;2263186;77;50999;-72
2022/08/15 02:58:21;;;;;;;9.73;8.73;;;;;;;28.64;42.39;99971.05;2298989;76;51605;-72
2022/08/15 03:01:26;;;;;;;10.75;9.08;;;;;;;28.64;42.35;99968.33;2268803;77;51622;-71
2022/08/15 03:04:30;;;;;;;10.60;9.37;;;;;;;28.65;42.40;99963.18;2309333;76;22386;-72
2022/08/15 03:07:31;;;;;;;10.28;9.20;;;;;;;28.64;42.41;99958.28;2338086;76;22600;-72
2022/08/15 03:10:35;;;;;;;11.60;9.58;;;;;;;28.64;42.61;99960.16;2277628;76;50889;-72
2022/08/15 03:13:39;;;;;;;11.33;8.83;;;;;;;28.66;42.43;99956.64;2379881;74;50342;-72
2022/08/15 03:16:43;;;;;;;12.68;9.15;;;;;;;28.65;42.48;99953.10;2372491;74;50473;-71
2022/08/15 03:19:48;;;;;;;9.85;8.85;;;;;;;28.65;42.41;99953.10;2289151;76;49622;-71
2022/08/15 03:22:50;;;;;;;13.30;9.53;;;;;;;28.65;42.40;99950.92;2371027;74;22330;-72
2022/08/15 03:25:53;;;;;;;14.50;8.95;;;;;;;28.64;42.31;99950.63;2318283;76;51565;-72
2022/08/15 03:28:55;;;;;;;11.75;9.20;;;;;;;28.63;42.46;99943.02;2351593;74;50381;-72
2022/08/15 03:31:57;;;;;;;10.70;9.53;;;;;;;28.62;42.31;99935.95;2318386;76;51502;-72
2022/08/15 03:35:02;;;;;;;9.65;8.75;;;;;;;28.61;42.39;99938.38;2351489;74;51078;-72
2022/08/15 03:38:04;;;;;;;10.75;9.65;;;;;;;28.62;42.27;99936.50;2227609;78;51701;-72
2022/08/15 03:41:08;;;;;;;13.68;9.95;;;;;;;28.61;42.21;99941.09;2380342;74;51443;-71
2022/08/15 03:44:11;;;;;;;11.08;9.60;;;;;;;28.61;42.31;99938.92;2351468;74;51005;-72
2022/08/15 03:47:13;;;;;;;10.98;9.25;;;;;;;28.61;42.48;99934.84;2336871;74;50116;-72
2022/08/15 03:50:16;;;;;;;10.53;9.03;;;;;;;28.61;42.19;99929.40;2316028;76;51538;-72
2022/08/15 03:53:18;;;;;;;10.63;8.88;;;;;;;28.62;42.20;99933.78;2211714;79;51541;-71
2022/08/15 03:56:23;;;;;;;10.90;9.80;;;;;;;28.60;42.32;99933.22;2341837;74;50664;-72
2022/08/15 03:59:25;;;;;;;11.77;10.57;;;;;;;28.62;42.43;99929.69;2239273;77;50090;-72
2022/08/15 04:02:28;;;;;;;10.85;9.75;;;;;;;28.62;42.28;99934.59;2320859;76;51422;-72
2022/08/15 04:05:31;;;;;;;11.48;9.53;;;;;;;28.62;42.29;99933.78;2295027;76;50414;-72
2022/08/15 04:08:34;;;;;;;18.50;9.63;;;;;;;28.61;42.35;99933.48;2215522;77;54064;-71
2022/08/15 04:11:36;;;;;;;12.37;9.80;;;;;;;28.60;42.54;99931.86;2310907;76;51449;-71
2022/08/15 04:14:38;;;;;;;12.07;9.78;;;;;;;28.61;42.59;99932.13;2338279;76;51459;-71
2022/08/15 04:17:40;;;;;;;12.40;10.15;;;;;;;28.61;42.33;99932.13;2267538;77;50311;-71
2022/08/15 04:20:42;;;;;;;12.78;10.05;;;;;;;28.61;42.01;99930.76;2338129;76;51486;-72
2022/08/15 04:23:46;;;;;;;11.20;10.10;;;;;;;28.60;41.79;99937.30;2282891;77;50374;-72
2022/08/15 04:26:48;;;;;;;16.97;13.88;;;;;;;28.62;41.83;99933.23;2294068;77;51569;-73
2022/08/15 04:29:50;;;;;;;18.02;14.38;;;;;;;28.40;44.14;99922.49;2263530;77;50485;-73
2022/08/15 04:32:53;;;;;;;18.57;13.75;;;;;;;28.17;45.39;99928.38;2239418;77;52661;-75
2022/08/15 04:36:01;;;;;;;19.37;14.98;;;;;;;27.86;46.09;99930.94;2298898;76;51437;-75
2022/08/15 04:39:03;;;;;;;21.87;14.80;;;;;;;27.69;46.83;99927.52;2331076;76;51525;-75
2022/08/15 04:42:06;;;;;;;22.58;14.58;;;;;;;27.50;47.71;99917.06;2356201;74;51458;-73
2022/08/15 04:45:09;;;;;;;19.35;15.43;;;;;;;27.41;47.83;99925.95;2336899;74;51518;-73
2022/08/15 04:48:14;;;;;;;20.48;14.07;;;;;;;27.36;47.93;99919.97;2213911;78;51759;-73
2022/08/15 04:51:15;;;;;;;17.52;14.73;;;;;;;27.52;47.54;99929.05;2256187;77;22398;-73
2022/08/15 04:54:18;;;;;;;18.85;13.80;;;;;;;27.23;48.38;99927.16;2285831;77;50673;-74
2022/08/15 04:57:20;;;;;;;19.77;14.58;;;;;;;27.26;48.22;99925.31;2285427;77;50303;-74
2022/08/15 05:00:25;;;;;;;21.40;13.98;;;;;;;27.27;48.17;99922.31;2285801;77;50753;-74
2022/08/15 05:03:28;;;;;;;18.57;14.03;;;;;;;27.22;48.39;99924.17;2299858;77;51985;-74
2022/08/15 05:06:31;;;;;;;19.20;14.68;;;;;;;27.17;48.64;99918.13;2335661;74;51469;-73
2022/08/15 05:09:33;;;;;;;19.55;14.03;;;;;;;27.15;48.81;99931.98;2293823;77;53783;-74
2022/08/15 05:12:36;;;;;;;19.12;15.28;;;;;;;27.09;49.12;99924.84;2330576;74;52498;-75
2022/08/15 05:15:38;;;;;;;19.62;14.15;;;;;;;26.89;49.86;99926.00;2272036;77;51596;-74
2022/08/15 05:18:41;;;;;;;22.52;15.15;;;;;;;26.85;49.81;99928.97;2306445;76;50693;-74
2022/08/15 05:21:43;;;;;;;19.30;14.75;;;;;;;26.71;50.47;99925.81;2230468;77;52508;-75
2022/08/15 05:24:46;;;;;;;18.85;14.83;;;;;;;26.56;51.06;99931.88;2257243;77;50314;-74
2022/08/15 05:27:48;;;;;;;19.42;16.07;;;;;;;26.56;51.12;99935.95;2230489;77;50392;-74
2022/08/15 05:30:51;;;;;;;23.25;16.35;;;;;;;26.40;51.69;99937.64;2257598;77;51497;-74
2022/08/15 05:33:54;;;;;;;19.17;15.85;;;;;;;26.51;51.28;99934.50;2299224;77;50225;-74
2022/08/15 05:36:56;;;;;;;20.02;15.50;;;;;;;26.63;51.23;99933.05;2259881;77;52519;-74
2022/08/15 05:39:58;;;;;;;16.82;15.08;;;;;;;26.33;52.27;99936.19;2303360;77;50482;-74
2022/08/15 05:43:11;;;;;;;18.17;14.35;;;;;;;26.16;52.73;99933.55;2292993;76;50170;-74
2022/08/15 05:46:20;;;;;;;17.80;13.62;;;;;;;26.36;51.81;99937.88;2322262;75;23898;-73
2022/08/15 05:49:39;;;;;;;18.32;14.30;;;;;;;26.55;51.04;99932.16;2324940;75;50597;-73
2022/08/15 05:53:04;;;;;;;19.45;13.72;;;;;;;26.42;51.97;99934.14;2336524;75;52352;-73
2022/08/15 05:56:18;;;;;;;19.15;14.35;;;;;;;26.60;50.92;99932.21;2359257;75;50409;-73
2022/08/15 05:59:20;;;;;;;17.65;13.48;;;;;;;26.79;50.77;99931.33;2318942;75;51536;-74
2022/08/15 06:02:37;;;;;;;24.80;13.30;;;;;;;26.85;50.13;99928.97;2264990;77;50954;-73
2022/08/15 06:05:43;;;;;;;19.37;15.18;;;;;;;26.97;50.46;99930.96;2317485;76;50461;-74
2022/08/15 06:08:46;;;;;;;;;;;;;;;26.69;51.77;99931.52;2257846;78;52166;-74
2022/08/15 06:11:48;;;;;;;17.00;14.75;;;;;;;26.76;51.34;99927.23;2235167;78;51698;-74
2022/08/15 06:14:52;;;;;;;16.65;14.85;;;;;;;26.58;52.40;99924.31;2352750;75;50294;-73
2022/08/15 06:17:56;;;;;;;18.45;14.53;;;;;;;26.44;52.91;99927.13;2329064;75;51487;-73
2022/08/15 06:21:34;;;;;;;21.55;15.13;;;;;;;26.67;52.40;99926.06;2308912;75;50921;-73
2022/08/15 06:24:48;;;;;;;16.93;13.22;;;;;;;26.79;52.28;99925.89;2312608;76;49987;-74
2022/08/15 06:28:03;;;;;;;20.40;15.00;;;;;;;26.78;52.33;99926.44;2308670;76;50254;-73
2022/08/15 06:31:17;;;;;;;16.90;15.10;;;;;;;26.75;52.49;99924.78;2317397;75;51539;-73
2022/08/15 06:34:40;;;;;;;20.20;16.30;;;;;;;26.67;52.80;99922.80;2326276;75;51619;-72
2022/08/15 06:37:48;;;;;;;20.23;15.32;;;;;;;26.52;53.27;99920.43;2329570;75;50102;-73
2022/08/15 06:41:06;;;;;;;18.05;14.55;;;;;;;26.53;53.61;99920.19;2355039;75;50721;-74
2022/08/15 06:44:08;;;;;;;16.77;14.10;;;;;;;26.65;53.10;99924.95;2381377;74;50270;-74
2022/08/15 06:47:10;;;;;;;18.52;13.35;;;;;;;26.65;52.91;99923.59;2315437;74;49579;-74
2022/08/15 06:50:19;;;;;;;21.70;13.98;;;;;;;26.84;52.04;99914.55;2354256;74;50661;-73
2022/08/15 06:53:42;;;;;;;16.70;13.38;;;;;;;27.07;51.41;99922.11;2349041;75;51512;-72
2022/08/15 06:56:53;;;;;;;16.07;13.18;;;;;;;27.11;51.65;99912.38;2271821;78;50649;-74
2022/08/15 07:00:10;;;;;;;16.02;13.62;;;;;;;27.06;52.28;99915.86;2272126;78;51462;-73
2022/08/15 07:03:49;;;;;;;15.32;12.18;;;;;;;26.98;52.40;99912.27;2272095;78;50721;-73
2022/08/15 07:07:03;;;;;;;13.48;12.05;;;;;;;27.06;52.26;99909.62;2246676;78;52439;-73
2022/08/15 07:10:27;;;;;;;16.97;12.20;;;;;;;27.18;51.80;99908.11;2230349;79;49988;-72
2022/08/15 07:13:35;;;;;;;15.68;12.98;;;;;;;27.26;51.74;99905.75;2209184;80;50278;-70
2022/08/15 07:16:45;;;;;;;14.13;12.63;;;;;;;27.24;52.00;99905.73;2209333;80;50722;-73
2022/08/15 07:19:47;;;;;;;20.10;12.23;;;;;;;27.34;51.54;99898.48;2210850;80;51642;-73
2022/08/15 07:22:50;;;;;;;25.37;13.00;;;;;;;27.35;51.34;99892.50;2186961;80;51361;-72
2022/08/15 07:25:53;;;;;;;16.87;12.00;;;;;;;27.33;51.29;99898.21;2187300;80;51522;-72
2022/08/15 07:28:58;;;;;;;20.10;11.55;;;;;;;27.33;51.17;99891.94;2208305;79;50409;-73
2022/08/15 07:32:03;;;;;;;15.63;11.38;;;;;;;27.35;51.18;99893.31;2289196;75;51014;-74
2022/08/15 07:35:08;;;;;;;13.30;10.67;;;;;;;27.37;51.00;99890.34;2284326;77;51446;-73
2022/08/15 07:38:12;;;;;;;16.30;10.88;;;;;;;27.52;50.79;99891.81;2351536;75;51527;-73
2022/08/15 07:41:30;;;;;;;13.85;11.10;;;;;;;27.63;50.43;99891.89;2364839;74;50643;-72
2022/08/15 07:44:32;;;;;;;13.40;10.88;;;;;;;27.64;50.44;99886.72;2367223;74;22481;-72
2022/08/15 07:47:34;;;;;;;12.58;10.58;;;;;;;27.75;50.26;99892.52;2244900;76;50916;-73
2022/08/15 07:50:41;;;;;;;12.15;10.88;;;;;;;27.72;50.12;99888.94;2331256;76;51541;-72
2022/08/15 07:53:52;;;;;;;12.07;10.80;;;;;;;27.73;50.05;99898.75;2328433;75;50406;-72
2022/08/15 07:56:58;;;;;;;13.78;10.30;;;;;;;27.82;49.67;99889.58;2303458;76;50943;-72
2022/08/15 08:00:15;;;;;;;13.62;10.38;;;;;;;27.82;49.41;99886.31;2333349;76;50433;-73
2022/08/15 08:03:21;;;;;;;16.62;11.25;;;;;;;27.90;49.10;99880.39;2333414;75;50385;-73
2022/08/15 08:06:41;;;;;;;14.13;10.90;;;;;;;27.70;49.47;99885.69;2333011;76;50227;-74
2022/08/15 08:09:54;;;;;;;12.88;10.20;;;;;;;27.64;49.48;99878.56;2333353;76;49960;-71
2022/08/15 08:13:17;;;;;;;11.83;10.20;;;;;;;27.75;49.30;99878.92;2301287;76;50970;-72
2022/08/15 08:16:25;;;;;;;11.73;10.38;;;;;;;27.84;49.11;99880.08;2332769;76;51584;-72
2022/08/15 08:19:36;;;;;;;11.33;10.18;;;;;;;27.97;48.82;99874.70;2332231;75;51491;-73
2022/08/15 08:23:14;;;;;;;11.40;10.03;;;;;;;28.04;48.43;99878.55;2287737;76;51507;-73
2022/08/15 08:26:38;;;;;;;14.73;10.98;;;;;;;28.03;48.39;99879.10;2321629;76;50259;-73
2022/08/15 08:29:47;;;;;;;12.10;10.00;;;;;;;28.09;48.58;99881.30;2321900;76;51584;-73
2022/08/15 08:33:18;;;;;;;15.93;12.07;;;;;;;28.04;48.84;99873.11;2321885;76;50640;-73
2022/08/15 08:36:40;;;;;;;13.93;11.57;;;;;;;28.04;48.96;99880.73;2321592;76;51614;-73
2022/08/15 08:41:24;;;;;;;16.05;11.30;;;;;;;27.95;48.98;99872.27;2288023;76;51787;-73
2022/08/15 08:43:08;;;;;;;13.25;11.60;;;;;;;28.12;48.72;99871.23;2317400;76;22422;-73
2022/08/15 08:46:18;;;;;;;12.63;10.58;;;;;;;27.94;49.30;99869.25;2321276;76;51484;-73
2022/08/15 08:49:49;;;;;;;13.08;11.45;;;;;;;27.95;49.09;99868.70;2296976;76;50089;-74
2022/08/15 08:53:01;;;;;;;14.45;11.20;;;;;;;28.05;48.97;99863.86;2333558;76;50307;-74
2022/08/15 08:56:08;;;;;;;13.93;11.40;;;;;;;27.98;49.03;99865.48;2333339;75;53538;-73
2022/08/15 08:59:17;;;;;;;14.30;11.10;;;;;;;28.06;48.76;99867.69;2333853;75;22315;-73
2022/08/15 09:02:20;;;;;;;14.25;11.28;;;;;;;28.11;48.64;99860.91;2333681;75;22753;-72
2022/08/15 09:05:49;;;;;;;14.50;11.20;;;;;;;28.04;48.45;99863.59;2311094;76;51804;-72
2022/08/15 09:08:56;;;;;;;12.93;11.48;;;;;;;28.00;48.44;99862.77;2333410;75;22258;-72
2022/08/15 09:12:04;;;;;;;13.20;10.60;;;;;;;27.96;48.65;99857.58;2333479;75;50286;-74
2022/08/15 09:15:09;;;;;;;14.28;11.60;;;;;;;27.91;48.63;99854.83;2310380;76;50894;-74
2022/08/15 09:18:14;;;;;;;15.40;11.35;;;;;;;28.04;48.33;99845.37;2332341;75;50381;-74
2022/08/15 09:21:17;;;;;;;12.37;10.65;;;;;;;28.04;48.33;99845.37;2326194;76;50290;-74
2022/08/15 09:24:21;;;;;;;12.78;10.88;;;;;;;28.14;47.91;99847.31;2321967;76;50341;-75
2022/08/15 09:27:39;;;;;;;15.08;12.37;;;;;;;27.96;48.14;99844.53;2321745;76;51555;-74
2022/08/15 09:30:41;;;;;;;14.03;11.90;;;;;;;27.88;48.45;99843.13;2287723;76;51290;-73
2022/08/15 09:34:06;;;;;;;16.02;12.37;;;;;;;27.92;48.33;99846.13;2321930;75;50701;-74
2022/08/15 09:37:27;;;;;;;14.35;11.53;;;;;;;27.84;48.53;99843.92;2324007;75;51545;-74
2022/08/15 09:40:45;;;;;;;19.62;12.78;;;;;;;27.79;48.38;99836.52;2291297;76;49781;-74
2022/08/15 09:44:03;;;;;;;19.12;12.95;;;;;;;27.71;48.61;99835.12;2313298;76;50829;-74
2022/08/15 09:47:14;;;;;;;15.60;12.73;;;;;;;27.84;48.35;99839.84;2330982;76;50136;-74
2022/08/15 09:50:22;;;;;;;14.33;12.30;;;;;;;27.88;48.22;99839.60;2331075;76;50218;-73
2022/08/15 09:53:44;;;;;;;13.90;12.40;;;;;;;27.74;48.52;99826.98;2330728;76;51527;-74
2022/08/15 09:56:46;;;;;;;17.50;12.63;;;;;;;27.80;48.41;99834.09;2296976;76;51364;-73
2022/08/15 10:00:16;;;;;;;16.48;11.38;;;;;;;27.93;48.27;99829.56;2331427;76;50068;-74
2022/08/15 10:03:27;;;;;;;12.85;10.88;;;;;;;27.97;47.67;99832.55;2291255;76;50828;-74
2022/08/15 10:07:05;;;;;;;12.35;11.08;;;;;;;28.07;47.31;99823.08;2269957;76;52279;-73
2022/08/15 10:10:25;;;;;;;12.80;11.48;;;;;;;28.18;47.06;99817.13;2325080;75;51498;-75
2022/08/15 10:13:40;;;;;;;12.88;11.18;;;;;;;28.11;47.25;99817.94;2331820;76;50742;-74
2022/08/15 10:16:43;;;;;;;17.15;12.10;;;;;;;28.10;47.38;99821.17;2331038;76;51475;-75
2022/08/15 10:19:45;;;;;;;13.50;12.10;;;;;;;27.99;47.90;99816.25;2318433;75;51425;-74
2022/08/15 10:23:04;;;;;;;15.88;11.85;;;;;;;27.94;47.88;99814.05;2304960;76;51251;-75
2022/08/15 10:26:21;;;;;;;13.68;11.93;;;;;;;27.99;47.63;99815.44;2333365;76;52328;-74
2022/08/15 10:29:27;;;;;;;14.50;11.43;;;;;;;28.00;47.62;99811.11;2333716;75;51436;-74
2022/08/15 10:32:35;;;;;;;11.68;10.50;;;;;;;28.06;47.52;99805.69;2311179;76;52171;-74
2022/08/15 10:35:45;;;;;;;12.33;10.15;;;;;;;28.12;46.28;99807.33;2333896;75;22289;-74
2022/08/15 10:39:09;;;;;;;11.18;9.55;;;;;;;28.11;46.22;99800.26;2333732;76;24255;-74
2022/08/15 10:42:31;;;;;;;13.40;10.13;;;;;;;28.10;46.19;99791.80;2333721;75;50678;-74
2022/08/15 10:45:41;;;;;;;15.32;10.63;;;;;;;28.18;46.10;99800.28;2223656;79;50807;-74
2022/08/15 10:48:57;;;;;;;11.12;9.98;;;;;;;28.19;46.05;99804.63;2236233;78;22567;-74
2022/08/15 10:52:11;;;;;;;13.32;10.70;;;;;;;28.16;45.87;99804.36;2262822;78;23938;-75
2022/08/15 10:55:25;;;;;;;13.03;10.15;;;;;;;28.19;45.95;99791.02;2196007;81;50368;-74
2022/08/15 10:58:32;;;;;;;12.15;10.85;;;;;;;28.25;45.81;99789.67;2172501;81;50109;-73
2022/08/15 11:01:35;;;;;;;11.28;10.25;;;;;;;28.23;45.82;99798.09;2196154;81;51491;-75
2022/08/15 11:04:38;;;;;;;12.03;10.72;;;;;;;28.26;45.65;99789.42;2196044;81;50323;-75
2022/08/15 11:07:47;;;;;;;12.50;10.65;;;;;;;28.15;45.89;99791.82;2172584;81;50322;-74
2022/08/15 11:10:50;;;;;;;12.60;10.75;;;;;;;28.19;45.89;99784.77;2171004;81;49622;-74
2022/08/15 11:13:59;;;;;;;12.78;11.12;;;;;;;28.17;45.96;99787.75;2195957;81;50969;-73
2022/08/15 11:17:03;;;;;;;12.60;11.22;;;;;;;28.21;45.91;99781.25;2196439;81;51507;-75
2022/08/15 11:20:12;;;;;;;13.80;11.50;;;;;;;28.35;45.78;99786.42;2174158;81;51555;-74
2022/08/15 11:23:13;;;;;;;12.07;10.85;;;;;;;28.37;45.67;99776.09;2186617;81;22379;-74
2022/08/15 11:26:16;;;;;;;12.53;11.22;;;;;;;28.34;45.63;99778.55;2113349;84;50631;-74
2022/08/15 11:29:20;;;;;;;12.47;11.12;;;;;;;28.31;45.69;99780.43;2141276;81;50689;-74
2022/08/15 11:32:29;;;;;;;11.83;10.63;;;;;;;28.32;45.48;99770.65;2167374;80;50411;-74
2022/08/15 11:35:31;;;;;;;15.18;11.65;;;;;;;28.29;45.44;99764.94;2302649;76;50252;-74
2022/08/15 11:38:35;;;;;;;15.72;10.90;;;;;;;28.41;45.11;99760.88;2283076;77;51764;-74
2022/08/15 11:41:40;;;;;;;11.97;10.68;;;;;;;28.42;45.00;99758.97;2302730;77;50361;-74
2022/08/15 11:44:45;;;;;;;12.60;10.73;;;;;;;28.52;44.55;99758.20;2301912;76;52392;-74
2022/08/15 11:47:50;;;;;;;12.28;10.13;;;;;;;28.53;44.56;99754.38;2312463;76;49543;-74
2022/08/15 11:50:58;;;;;;;11.83;10.72;;;;;;;28.46;44.81;99755.99;2341719;76;51376;-74
2022/08/15 11:54:06;;;;;;;12.55;10.48;;;;;;;28.44;44.86;99754.11;2341668;76;50716;-74
2022/08/15 11:57:10;;;;;;;14.38;10.90;;;;;;;28.46;44.67;99754.63;2309860;76;50719;-74
2022/08/15 12:00:16;;;;;;;11.63;10.00;;;;;;;28.54;44.47;99745.95;2309666;76;51523;-74
2022/08/15 12:03:34;;;;;;;13.78;10.38;;;;;;;28.51;44.41;99744.30;2309459;76;50017;-74
2022/08/15 12:06:38;;;;;;;13.08;11.08;;;;;;;28.70;43.96;99738.59;2286468;76;51288;-76
2022/08/15 12:09:40;;;;;;;10.95;9.95;;;;;;;28.61;44.04;99740.22;2341725;76;50615;-74
2022/08/15 12:12:45;;;;;;;11.90;10.40;;;;;;;28.52;43.87;99754.93;2284017;76;50902;-73
2022/08/15 12:15:47;;;;;;;;;;;;;;;28.54;43.77;99737.79;2344592;76;50277;-73
2022/08/15 12:18:49;;;;;;;12.90;10.38;;;;;;;28.50;43.97;99739.95;2329081;76;51467;-75
2022/08/15 12:21:52;;;;;;;11.95;10.72;;;;;;;28.54;43.88;99742.39;2304917;76;50846;-73
2022/08/15 12:24:55;;;;;;;15.25;10.48;;;;;;;28.60;43.63;99745.41;2338152;76;51404;-74
2022/08/15 12:27:57;;;;;;;11.95;10.68;;;;;;;28.51;43.71;99745.11;2308211;76;51963;-72
2022/08/15 12:31:11;;;;;;;11.93;10.82;;;;;;;28.50;43.82;99737.23;2282861;76;52472;-74
2022/08/15 12:34:19;;;;;;;11.88;10.65;;;;;;;28.53;43.51;99736.14;2337363;76;51535;-73
2022/08/15 12:37:24;;;;;;;13.95;11.48;;;;;;;28.53;43.11;99735.33;2307752;76;50851;-74
2022/08/15 12:40:26;;;;;;;13.75;11.48;;;;;;;28.55;43.14;99735.88;2338168;76;50636;-75
2022/08/15 12:43:29;;;;;;;13.05;11.15;;;;;;;28.50;43.35;99729.88;2338201;76;50183;-74
2022/08/15 12:46:31;;;;;;;14.07;11.00;;;;;;;28.52;42.99;99726.35;2308180;76;50940;-74
2022/08/15 12:49:34;;;;;;;12.10;10.90;;;;;;;28.57;42.94;99721.45;2327934;76;51478;-74
2022/08/15 12:52:36;;;;;;;11.90;10.78;;;;;;;28.64;42.83;99713.81;2341615;76;52386;-74
2022/08/15 12:55:42;;;;;;;11.73;10.53;;;;;;;28.56;43.03;99720.62;2321808;76;50408;-74
2022/08/15 12:58:44;;;;;;;11.33;10.15;;;;;;;28.53;43.10;99717.09;2341136;76;50174;-74
2022/08/15 13:01:46;;;;;;;12.18;10.72;;;;;;;28.56;43.04;99707.01;2295618;76;50900;-74
2022/08/15 13:04:50;;;;;;;11.97;10.75;;;;;;;28.58;43.02;99698.58;2341632;75;51408;-74
2022/08/15 13:07:53;;;;;;;12.98;10.10;;;;;;;28.54;43.09;99709.73;2341245;75;51482;-73
2022/08/15 13:10:55;;;;;;;11.10;9.95;;;;;;;28.66;42.40;99701.56;2287145;76;50890;-73
2022/08/15 13:13:57;;;;;;;11.55;9.70;;;;;;;28.60;42.48;99692.33;2341608;76;51438;-73
2022/08/15 13:17:00;;;;;;;10.85;9.75;;;;;;;28.64;42.32;99690.67;2302961;76;50159;-73
2022/08/15 13:26:42;;;;;;;10.50;9.38;;;;;;;28.78;41.81;99683.59;2341715;76;22437;-75
2022/08/15 13:29:45;;;;;;;11.70;9.43;;;;;;;28.74;41.91;99670.25;2309409;76;51418;-74
2022/08/15 13:32:47;;;;;;;11.28;8.93;;;;;;;28.75;41.83;99681.42;2341619;76;50303;-73
2022/08/15 13:35:50;;;;;;;9.65;8.68;;;;;;;28.70;41.98;99666.45;2309133;76;49622;-74
2022/08/15 13:38:52;;;;;;;11.22;10.00;;;;;;;28.63;42.08;99668.64;2312348;76;50029;-74
2022/08/15 13:41:54;;;;;;;11.25;9.45;;;;;;;28.77;41.66;99661.55;2341531;76;50665;-74
2022/08/15 13:44:56;;;;;;;10.15;9.15;;;;;;;28.70;41.81;99672.45;2283996;76;51378;-75
2022/08/15 13:47:59;;;;;;;9.48;8.58;;;;;;;28.73;41.70;99656.92;2319531;75;50612;-74
2022/08/15 13:51:06;;;;;;;14.47;8.18;;;;;;;28.72;41.42;99653.91;2320852;75;52369;-75
2022/08/15 13:54:09;;;;;;;8.90;7.97;;;;;;;28.74;40.81;99655.27;2321919;75;50032;-74
2022/08/15 13:57:11;;;;;;;10.28;8.63;;;;;;;28.71;40.84;99642.22;2352925;75;50238;-74
2022/08/15 14:00:13;;;;;;;10.63;8.00;;;;;;;28.75;40.77;99631.06;2293968;75;50016;-74
2022/08/15 14:03:19;;;;;;;10.48;8.20;;;;;;;28.72;41.05;99630.25;2295792;75;50761;-74
2022/08/15 14:06:20;;;;;;;10.05;8.50;;;;;;;28.76;40.88;99623.15;2352600;74;22407;-74
2022/08/15 14:09:24;;;;;;;10.88;8.63;;;;;;;28.82;40.78;99622.06;2353065;75;51591;-74
2022/08/15 14:12:26;;;;;;;10.82;8.70;;;;;;;29.08;40.14;99610.56;2353193;75;51446;-75
2022/08/15 14:15:29;;;;;;;11.43;7.87;;;;;;;29.10;39.97;99610.27;2295441;75;51298;-75
2022/08/15 14:18:35;;;;;;;10.93;8.73;;;;;;;29.10;39.94;99607.55;2354519;75;50263;-74
2022/08/15 14:21:36;;;;;;;11.38;8.38;;;;;;;29.10;39.87;99610.27;2357925;74;21961;-74
2022/08/15 14:24:38;;;;;;;13.20;7.90;;;;;;;29.07;40.03;99609.47;2299913;75;51720;-73
2022/08/15 14:27:44;;;;;;;10.20;8.00;;;;;;;29.05;40.09;99603.48;2322145;75;49854;-74
2022/08/15 14:30:46;;;;;;;10.48;8.40;;;;;;;29.05;40.08;99602.12;2353637;75;51440;-73
2022/08/15 14:33:49;;;;;;;9.30;8.40;;;;;;;29.17;39.69;99608.06;2329368;75;50740;-75